x

Sentry Shoal (46131) Wave Buoy

8:00 - Sat 21st Jan 2017 All times are PST. -8 hours from GMT.

  • Sig Wave height 0.3ft
  • Peak Period 3s
  • Wind
    9mph, 11mph gusts
  • Sea Temp 46°f
  • Luft Temp 46°f
  • Sea Pressure 999.8mb
  • Sentry Shoal
  • Sentry Shoal

More Historic Weather Station data

Upgrade to MSW Pro to gain access to the past 30 days of data for over 8000 Wavebouys and Weather Stations around the globe.

Join Pro

Comparision Forecast

View Surf forecast
   
Sa 01/21 8:00 0.3ft 3s 9 11 mph 999.8mb 46f 46f
7:00 0.3ft 3s 7 9 mph 999.1mb 46f 45f
6:00 0.3ft 3s 4
mph
998.5mb 46f 45f
5:00 0.3ft 3s 4 7 mph 997.9mb 46f 45f
4:00 0.3ft 3s 4 7 mph 997.4mb 46f 45f
3:00 0.3ft 2s 4
mph
996.8mb 47f 45f
2:00 0.7ft 2s 4 7 mph 996mb 47f 44f
1:00 0.7ft 2s 9 11 mph 995.7mb 47f 44f
12:00 0.7ft 2s 9
mph
995.1mb 46f 44f
11:00 0.7ft 2s 11 13 mph 994.8mb 46f 44f
10:00 1ft 2s 11
mph
994.3mb 46f 44f
9:00 0.7ft 2s 11 13 mph 993.5mb 46f 44f
8:00 0.7ft 2s 11 13 mph 992.8mb 46f 43f
7:00 0.7ft 2s 11 13 mph 992.2mb 46f 43f
6:00 0.3ft 2s 9 11 mph 991.8mb 46f 43f
5:00 0.3ft 4s 9 11 mph 991.5mb 46f 44f
4:00 0.3ft 4s 4
mph
991.2mb 46f 43f
3:00 0.3ft 4s 2
mph
990.9mb 46f 44f
2:00 0.3ft 2s 2 4 mph 990.4mb 47f 44f
1:00 0.3ft 4s 4 7 mph 989.7mb 46f 44f
12:00 0.3ft 2s 4
mph
989.4mb 46f 44f
Fr 01/20 11:00 0.3ft 4s 4
mph
989.2mb 47f 44f
10:00 0.3ft 4s 9 11 mph 988.5mb 47f 44f
9:00 0.3ft 4s 4 7 mph 988.6mb 46f 45f
8:00 0.3ft 4s 4
mph
988.1mb 47f 45f
7:00 0.3ft 4s 4 7 mph 987.7mb 47f 46f
6:00 0.3ft 4s 2
mph
987.5mb 47f 46f
5:00 0.3ft 4s 4
mph
987.1mb 47f 47f
4:00 0.3ft 4s 7
mph
986.9mb 47f 46f
3:00 0.3ft 4s 7
mph
987.1mb 47f 46f
2:00 0.3ft 2s 7 9 mph 987.4mb 47f 46f
1:00 0.3ft 2s 9 11 mph 987.8mb 47f 45f
12:00 0.3ft 2s 7 9 mph 988.6mb 47f 45f
11:00 0.3ft 4s 7 9 mph 989.1mb 47f 45f
10:00 0.7ft 4s 9
mph
989.6mb 46f 44f
9:00 1ft 4s 4 7 mph 989.9mb 46f 44f
8:00 1.6ft 5s 4 7 mph 990.4mb 46f 45f
7:00 2ft 5s 7 13 mph 990.7mb 47f 45f
6:00 2.5ft 4s 13
mph
991.1mb 47f 45f
5:00 2ft 3s 13 16 mph 991.9mb 47f 45f
4:00 2.5ft 4s 16 18 mph 992.5mb 47f 45f
3:00 2.5ft 4s 18 22 mph 993mb 47f 45f
2:00 3ft 4s 16 18 mph 993.5mb 47f 46f
1:00 3ft 4s 16 18 mph 993.8mb 47f 46f
12:00 3.5ft 4s 22 27 mph 993.7mb 47f 46f
Do 01/19 11:00 3ft 4s 22 29 mph 994.1mb 47f 46f
10:00 3ft 4s 25 29 mph 994mb 47f 46f
9:00 2.5ft 4s 22 25 mph 994.1mb 47f 46f
8:00 3ft 4s 18 22 mph 994.4mb 47f 46f
7:00 3.5ft 4s 20 25 mph 994.5mb 47f 46f
6:00 3.5ft 4s 22 25 mph 994.7mb 47f 46f
5:00 3ft 4s 22 27 mph 994.7mb 47f 46f
4:00 2.5ft 4s 22 27 mph 994.5mb 47f 46f
3:00 3.5ft 4s 20 25 mph 994.5mb 47f 46f
2:00 3.5ft 4s 20 27 mph 994.3mb 47f 46f
1:00 3.5ft 4s 22 27 mph 994.5mb 47f 46f
12:00 3ft 4s 18 22 mph 994.7mb 47f 47f
11:00 3.5ft 4s 20 22 mph 995.1mb 47f 46f
10:00 3.5ft 4s 25 27 mph 994.3mb 47f 46f
9:00 3.5ft 4s 22 27 mph 994.2mb 47f 47f
8:00 3.5ft 4s 25 29 mph 993.5mb 47f 46f
7:00 3ft 4s 22 27 mph 993.2mb 47f 46f
6:00 3.5ft 4s 22 29 mph 992.8mb 47f 46f
5:00 3.5ft 4s 20 25 mph 992.6mb 47f 47f
4:00 3.5ft 4s 25 29 mph 991.8mb 47f 46f
3:00 2.5ft 4s 22 27 mph 991.3mb 47f 46f
2:00 2.5ft 4s 22 27 mph 990.3mb 47f 47f
1:00 2.5ft 3s 18 22 mph 989.6mb 47f 47f
12:00 2.5ft 3s 20 25 mph 988.5mb 47f 47f
Mi 01/18 11:00 2ft 4s 18 22 mph 988.2mb 47f 48f
10:00 2ft 3s 18 22 mph 987.7mb 47f 47f
9:00 3ft 4s 13 16 mph 987.8mb 47f 48f
8:00 3ft 4s 22 25 mph 987mb 47f 49f
7:00 3.5ft 5s 16 20 mph 987.2mb 47f 49f
6:00 3.5ft 4s 22 27 mph 987.4mb 47f 49f
5:00 4ft 5s 22 31 mph 987.4mb 47f 50f
4:00 4.5ft 5s 25 29 mph 987.1mb 47f 49f
3:00 5.5ft 7s 27 36 mph 986.8mb 47f 49f
2:00 6.5ft 5s 25 31 mph 985.9mb 47f 51f
1:00 8ft 6s 31 40 mph 985.5mb 47f 50f
12:00 8ft 5s 25 31 mph 984.7mb 47f 49f
11:00 6.5ft 5s 34 40 mph 983.5mb 47f 49f
10:00 6ft 5s 34 43 mph 983.3mb 47f 49f
9:00 5ft 5s 25 31 mph 985.1mb 47f 48f
8:00 5ft 6s 18 22 mph 986.2mb 47f 48f
7:00 5ft 4s 27 34 mph 986.8mb 47f 49f
6:00 5ft 6s 16 22 mph 987.8mb 47f 48f